createdAt,value
2022-09-13T00:01:07.264Z,97.60
2022-09-13T00:03:35.406Z,97.40
2022-09-13T00:06:09.785Z,97.20
2022-09-13T00:08:37.805Z,97.30
2022-09-13T00:11:06.202Z,97.20
2022-09-13T00:13:34.350Z,97.10
2022-09-13T00:16:04.078Z,97.10
2022-09-13T00:18:34.402Z,97.20
2022-09-13T00:21:07.491Z,97.30
2022-09-13T00:23:35.523Z,97.30
2022-09-13T00:26:09.134Z,97.40
2022-09-13T00:28:37.722Z,97.60
2022-09-13T00:31:07.772Z,97.60
2022-09-13T00:33:37.113Z,97.70
2022-09-13T00:36:06.657Z,97.80
2022-09-13T00:38:36.812Z,97.80
2022-09-13T00:41:05.734Z,98.20
2022-09-13T00:43:44.634Z,98.10
2022-09-13T00:46:16.171Z,98.40
2022-09-13T00:48:46.956Z,98.60
2022-09-13T00:51:15.159Z,98.50
2022-09-13T00:53:45.880Z,98.40
2022-09-13T00:56:18.694Z,98.60
2022-09-13T00:58:51.644Z,98.70
2022-09-13T01:01:22.601Z,98.90
2022-09-13T01:03:52.219Z,98.70
2022-09-13T01:06:23.754Z,98.70
2022-09-13T01:08:54.687Z,98.70
2022-09-13T01:11:31.044Z,98.70
2022-09-13T01:13:59.250Z,98.80
2022-09-13T01:16:28.014Z,98.60
2022-09-13T01:18:57.371Z,98.50
2022-09-13T01:21:56.629Z,98.70
2022-09-13T01:25:17.239Z,98.70
2022-09-13T01:28:15.400Z,98.70
2022-09-13T01:30:51.958Z,98.70
2022-09-13T01:33:43.870Z,98.60
2022-09-13T01:36:32.927Z,98.60
2022-09-13T01:39:05.571Z,98.60
2022-09-13T01:41:55.338Z,98.60
2022-09-13T01:44:38.997Z,98.60
2022-09-13T01:47:19.761Z,98.60
2022-09-13T01:49:55.877Z,98.50
2022-09-13T01:52:30.218Z,98.40
2022-09-13T01:55:07.607Z,98.40
2022-09-13T01:57:42.516Z,98.40
2022-09-13T02:00:14.918Z,98.40
2022-09-13T02:02:50.928Z,98.40
2022-09-13T02:05:23.873Z,98.50
2022-09-13T02:07:58.341Z,98.40
2022-09-13T02:10:31.246Z,98.40
2022-09-13T02:13:01.293Z,98.50
2022-09-13T02:15:34.945Z,98.50
2022-09-13T02:18:09.467Z,98.60
2022-09-13T02:20:39.991Z,98.80
2022-09-13T02:23:14.258Z,98.70
2022-09-13T02:25:44.740Z,98.70
2022-09-13T02:28:17.412Z,98.80
2022-09-13T02:30:51.669Z,99.20
2022-09-13T02:33:25.748Z,99.20
2022-09-13T02:35:57.037Z,99.20
2022-09-13T02:38:28.730Z,99.10
2022-09-13T02:41:01.287Z,99.10
2022-09-13T02:43:33.619Z,99.10
2022-09-13T02:46:22.827Z,99.10
2022-09-13T02:49:01.028Z,99.20
2022-09-13T02:51:36.960Z,99.10
2022-09-13T02:54:14.728Z,99.40
2022-09-13T02:56:50.930Z,99.30
2022-09-13T02:59:20.076Z,99.30
2022-09-13T03:01:51.829Z,99.10
2022-09-13T03:04:21.564Z,99.00
2022-09-13T03:06:51.156Z,99.00
2022-09-13T03:09:20.369Z,99.00
2022-09-13T03:12:08.356Z,99.10
2022-09-13T03:14:45.963Z,99.20
2022-09-13T03:17:25.439Z,99.10
2022-09-13T03:20:09.197Z,99.20
2022-09-13T03:22:56.497Z,99.20
2022-09-13T03:25:34.085Z,99.20
2022-09-13T03:28:09.051Z,99.10
2022-09-13T03:30:40.218Z,99.10
2022-09-13T03:33:17.326Z,99.10
2022-09-13T03:35:53.922Z,99.30
2022-09-13T03:38:33.775Z,99.30
2022-09-13T03:41:08.929Z,99.30
2022-09-13T03:43:41.578Z,99.30
2022-09-13T03:46:13.249Z,99.20
2022-09-13T03:48:42.817Z,99.30
2022-09-13T03:51:12.431Z,99.50
2022-09-13T03:53:47.091Z,99.40
2022-09-13T03:56:16.768Z,99.50
2022-09-13T03:58:44.841Z,99.60
2022-09-13T04:01:12.927Z,99.50
2022-09-13T04:03:41.420Z,99.50
2022-09-13T04:06:10.209Z,99.40
2022-09-13T04:08:39.612Z,99.30
2022-09-13T04:11:08.995Z,99.20
2022-09-13T04:13:37.118Z,99.10
2022-09-13T04:16:07.392Z,99.00
2022-09-13T04:18:36.160Z,99.00
2022-09-13T04:21:04.623Z,98.90
2022-09-13T04:23:33.083Z,99.00
2022-09-13T04:26:07.632Z,99.00
2022-09-13T04:28:35.612Z,99.00
2022-09-13T04:31:03.615Z,99.00
2022-09-13T04:33:31.528Z,99.00
2022-09-13T04:36:00.409Z,99.00
2022-09-13T04:38:29.023Z,99.00
2022-09-13T04:40:57.376Z,99.00
2022-09-13T04:43:26.794Z,99.10
2022-09-13T04:45:54.807Z,99.30
2022-09-13T04:48:22.768Z,99.10
2022-09-13T04:50:50.704Z,99.20
2022-09-13T04:53:18.674Z,99.30
2022-09-13T04:55:46.558Z,99.40
2022-09-13T04:58:14.527Z,99.50
2022-09-13T05:00:43.833Z,99.50
2022-09-13T05:03:11.830Z,99.50
2022-09-13T05:05:39.814Z,99.60
2022-09-13T05:08:07.925Z,99.60
2022-09-13T05:10:35.871Z,99.60
2022-09-13T05:13:03.889Z,99.70
2022-09-13T05:15:31.841Z,99.70
2022-09-13T05:18:01.226Z,99.70
2022-09-13T05:20:29.126Z,99.60
2022-09-13T05:22:57.410Z,99.80
2022-09-13T05:25:26.212Z,99.50
2022-09-13T05:27:54.127Z,99.40
2022-09-13T05:30:22.276Z,99.50
2022-09-13T05:32:50.141Z,99.50
2022-09-13T05:35:19.464Z,99.40
2022-09-13T05:37:47.418Z,99.40
2022-09-13T05:40:15.585Z,99.30
2022-09-13T05:42:43.518Z,99.40
2022-09-13T05:45:11.748Z,99.30
2022-09-13T05:47:39.787Z,99.30
2022-09-13T05:50:11.067Z,99.20
2022-09-13T05:52:42.916Z,99.30
2022-09-13T05:55:11.675Z,99.30
2022-09-13T05:57:39.609Z,99.30
2022-09-13T06:00:08.802Z,99.30
2022-09-13T06:02:40.414Z,99.30
2022-09-13T06:05:10.190Z,99.30
2022-09-13T06:07:40.608Z,99.30
2022-09-13T06:10:11.593Z,99.40
2022-09-13T06:12:39.540Z,99.40
2022-09-13T06:15:08.906Z,99.50
2022-09-13T06:17:36.810Z,99.60
2022-09-13T06:20:05.104Z,99.60
2022-09-13T06:22:35.223Z,99.60
2022-09-13T06:25:03.251Z,99.70
2022-09-13T06:27:32.470Z,99.60
2022-09-13T06:30:00.502Z,99.70
2022-09-13T06:32:28.484Z,99.90
2022-09-13T06:34:56.398Z,99.90
2022-09-13T06:37:24.362Z,99.90
2022-09-13T06:39:52.282Z,99.90
2022-09-13T06:42:20.267Z,99.90
2022-09-13T06:44:49.476Z,99.90
2022-09-13T06:47:17.374Z,99.90
2022-09-13T06:49:45.700Z,99.90
2022-09-13T06:52:13.621Z,99.90
2022-09-13T06:54:41.553Z,99.80
2022-09-13T06:57:09.476Z,99.90
2022-09-13T06:59:37.386Z,99.70
2022-09-13T07:02:06.817Z,99.60
2022-09-13T07:04:34.799Z,99.60
2022-09-13T07:07:02.896Z,99.60
2022-09-13T07:09:30.793Z,99.60
2022-09-13T07:11:58.706Z,99.50
2022-09-13T07:14:28.155Z,99.50
2022-09-13T07:16:56.806Z,99.30
2022-09-13T07:19:27.345Z,99.30
2022-09-13T07:21:56.797Z,99.30
2022-09-13T07:24:25.171Z,99.30
2022-09-13T07:26:53.236Z,99.30
2022-09-13T07:29:23.838Z,99.30
2022-09-13T07:31:54.326Z,99.20
2022-09-13T07:34:23.794Z,99.10
2022-09-13T07:36:53.618Z,99.00
2022-09-13T07:39:23.234Z,98.90
2022-09-13T07:41:51.654Z,98.80
2022-09-13T07:44:19.876Z,98.60
2022-09-13T07:46:47.800Z,98.60
2022-09-13T07:49:18.885Z,98.60
2022-09-13T07:51:47.135Z,98.50
2022-09-13T07:54:17.957Z,98.30
2022-09-13T07:56:46.437Z,97.90
2022-09-13T07:59:15.924Z,97.90
2022-09-13T08:01:45.841Z,97.70
2022-09-13T08:04:17.082Z,97.40
2022-09-13T08:06:47.414Z,97.30
2022-09-13T08:09:17.243Z,97.20
2022-09-13T08:11:47.294Z,96.90
2022-09-13T08:14:16.795Z,96.70
2022-09-13T08:16:44.732Z,96.40
2022-09-13T08:19:15.365Z,96.50
2022-09-13T08:21:43.950Z,95.50
2022-09-13T08:24:17.132Z,95.80
2022-09-13T08:26:45.894Z,95.90
2022-09-13T08:29:14.756Z,95.80
2022-09-13T08:31:42.880Z,95.20
2022-09-13T08:34:12.926Z,95.20
2022-09-13T08:36:41.710Z,95.10
2022-09-13T08:39:12.755Z,95.00
2022-09-13T08:42:15.513Z,94.80
2022-09-13T08:44:47.372Z,94.30
2022-09-13T08:47:38.823Z,93.50
2022-09-13T08:50:13.836Z,93.60
2022-09-13T08:52:52.116Z,93.20
2022-09-13T08:55:27.255Z,92.70
2022-09-13T08:58:05.822Z,92.60
2022-09-13T09:00:39.509Z,91.40
2022-09-13T09:03:21.185Z,92.10
2022-09-13T09:05:50.867Z,91.50
2022-09-13T09:08:33.813Z,90.60
2022-09-13T09:11:08.762Z,90.90
2022-09-13T09:13:42.322Z,90.40
2022-09-13T09:16:26.396Z,90.10
2022-09-13T09:19:00.265Z,89.10
2022-09-13T09:21:28.596Z,90.30
2022-09-13T09:23:57.223Z,90.70
2022-09-13T09:26:29.104Z,89.40
2022-09-13T09:29:01.223Z,88.90
2022-09-13T09:31:38.567Z,88.70
2022-09-13T09:34:18.457Z,88.10
2022-09-13T09:36:55.239Z,88.20
2022-09-13T09:39:27.759Z,87.90
2022-09-13T09:41:58.325Z,87.60
2022-09-13T09:44:32.762Z,87.10
2022-09-13T09:47:04.493Z,85.00
2022-09-13T09:49:56.367Z,85.10
2022-09-13T09:52:30.720Z,85.80
2022-09-13T09:55:06.006Z,85.00
2022-09-13T09:57:51.968Z,85.60
2022-09-13T10:00:23.361Z,83.20
2022-09-13T10:02:54.818Z,84.40
2022-09-13T10:05:26.190Z,82.90
2022-09-13T10:07:59.869Z,83.40
2022-09-13T10:10:35.849Z,81.80
2022-09-13T10:13:05.854Z,80.60
2022-09-13T10:15:35.806Z,80.00
2022-09-13T10:18:42.326Z,80.80
2022-09-13T10:21:06.993Z,79.30
2022-09-13T10:23:35.219Z,79.50
2022-09-13T10:26:09.921Z,77.90
2022-09-13T10:28:45.819Z,78.90
2022-09-13T10:31:17.768Z,79.40
2022-09-13T10:33:55.953Z,78.50
2022-09-13T10:36:50.621Z,76.20
2022-09-13T10:39:18.848Z,76.30
2022-09-13T10:41:52.568Z,74.30
2022-09-13T10:44:33.967Z,73.90
2022-09-13T10:47:07.371Z,74.00
2022-09-13T10:49:40.700Z,74.10
2022-09-13T10:52:33.049Z,74.60
2022-09-13T10:55:26.919Z,73.10
2022-09-13T10:57:56.492Z,74.20
2022-09-13T11:00:31.230Z,71.70
2022-09-13T11:03:24.349Z,71.60
2022-09-13T11:06:01.951Z,72.30
2022-09-13T11:08:42.415Z,68.80
2022-09-13T11:11:19.412Z,68.90
2022-09-13T11:14:03.102Z,69.50
2022-09-13T11:16:41.953Z,70.20
2022-09-13T11:19:33.176Z,69.00
2022-09-13T11:22:20.438Z,69.00
2022-09-13T11:25:04.339Z,68.00
2022-09-13T11:27:39.205Z,67.70
2022-09-13T11:30:16.760Z,64.50
2022-09-13T11:33:08.997Z,68.10
2022-09-13T11:35:47.971Z,68.50
2022-09-13T11:38:36.997Z,69.10
2022-09-13T11:41:16.498Z,68.50
2022-09-13T11:44:14.858Z,69.00
2022-09-13T11:46:47.746Z,69.00
2022-09-13T11:49:35.100Z,68.30
2022-09-13T11:52:12.835Z,68.30
2022-09-13T11:54:53.826Z,68.20
2022-09-13T11:57:27.879Z,66.90
2022-09-13T12:00:00.225Z,67.40
2022-09-13T12:02:30.911Z,67.40
2022-09-13T12:05:21.626Z,67.30
2022-09-13T12:07:55.934Z,68.30
2022-09-13T12:10:27.797Z,68.00
2022-09-13T12:12:58.385Z,67.60
2022-09-13T12:15:34.071Z,68.30
2022-09-13T12:18:07.583Z,68.50
2022-09-13T12:20:37.939Z,68.70
2022-09-13T12:23:15.840Z,68.80
2022-09-13T12:25:50.350Z,68.50
2022-09-13T12:28:23.513Z,68.40
2022-09-13T12:30:56.603Z,68.50
2022-09-13T12:33:24.822Z,67.90
2022-09-13T12:36:10.801Z,68.60
2022-09-13T12:39:02.251Z,69.00
2022-09-13T12:41:48.092Z,69.20
2022-09-13T12:44:45.551Z,68.90
2022-09-13T12:47:45.587Z,68.80
2022-09-13T12:50:43.799Z,69.00
2022-09-13T12:53:26.829Z,69.10
2022-09-13T12:56:03.909Z,68.90
2022-09-13T12:58:59.428Z,69.20
2022-09-13T13:01:30.789Z,68.80
2022-09-13T13:04:04.099Z,67.70
2022-09-13T13:06:37.118Z,67.70
2022-09-13T13:09:08.534Z,67.40
2022-09-13T13:11:48.741Z,66.70
2022-09-13T13:14:45.310Z,66.60
2022-09-13T13:17:31.846Z,66.20
2022-09-13T13:19:59.821Z,66.10
2022-09-13T13:22:50.505Z,65.50
2022-09-13T13:25:33.603Z,66.10
2022-09-13T13:28:03.072Z,65.50
2022-09-13T13:30:54.412Z,65.30
2022-09-13T13:33:26.894Z,65.60
2022-09-13T13:35:55.462Z,65.30
2022-09-13T13:38:48.535Z,65.10
2022-09-13T13:41:45.801Z,65.30
2022-09-13T13:44:51.043Z,65.00
2022-09-13T13:48:02.014Z,63.90
2022-09-13T13:50:30.260Z,64.70
2022-09-13T13:53:06.157Z,63.90
2022-09-13T13:55:44.363Z,63.60
2022-09-13T13:58:25.783Z,62.20
2022-09-13T14:00:55.761Z,63.90
2022-09-13T14:03:32.153Z,64.30
2022-09-13T14:06:10.104Z,64.70
2022-09-13T14:08:54.915Z,64.70
2022-09-13T14:11:37.567Z,64.40
2022-09-13T14:14:25.465Z,65.00
2022-09-13T14:17:05.921Z,65.60
2022-09-13T14:19:40.578Z,65.50
2022-09-13T14:22:19.119Z,65.40
2022-09-13T14:24:49.005Z,65.20
2022-09-13T14:27:20.468Z,65.90
2022-09-13T14:29:50.808Z,65.90
2022-09-13T14:32:23.654Z,66.30
2022-09-13T14:34:56.198Z,66.80
2022-09-13T14:37:29.625Z,66.70
2022-09-13T14:39:59.445Z,66.60
2022-09-13T14:42:28.057Z,66.90
2022-09-13T14:44:56.284Z,67.10
2022-09-13T14:47:31.383Z,67.30
2022-09-13T14:50:04.752Z,67.10
2022-09-13T14:52:36.221Z,67.10
2022-09-13T14:55:09.775Z,67.20
2022-09-13T14:57:42.079Z,67.10
2022-09-13T15:00:19.334Z,67.30
2022-09-13T15:02:50.974Z,67.50
2022-09-13T15:05:24.740Z,67.30
2022-09-13T15:07:52.872Z,67.50
2022-09-13T15:10:26.754Z,67.20
2022-09-13T15:12:57.143Z,67.80
2022-09-13T15:15:32.697Z,67.70
2022-09-13T15:18:02.287Z,67.90
2022-09-13T15:20:45.967Z,68.20
2022-09-13T15:23:17.074Z,68.10
2022-09-13T15:25:54.025Z,68.30
2022-09-13T15:28:27.678Z,68.10
2022-09-13T15:30:57.072Z,68.60
2022-09-13T15:33:27.993Z,68.70
2022-09-13T15:36:15.784Z,69.10
2022-09-13T15:39:01.759Z,69.40
2022-09-13T15:41:32.822Z,70.10
2022-09-13T15:44:02.225Z,69.70
2022-09-13T15:46:31.289Z,69.90
2022-09-13T15:49:02.461Z,70.10
2022-09-13T15:51:35.490Z,70.40
2022-09-13T15:54:03.574Z,71.00
2022-09-13T15:56:34.170Z,71.30
2022-09-13T15:59:02.757Z,71.40
2022-09-13T16:01:30.888Z,71.60
2022-09-13T16:03:58.876Z,72.00
2022-09-13T16:06:26.949Z,72.00
2022-09-13T16:08:56.270Z,72.60
2022-09-13T16:11:25.508Z,72.70
2022-09-13T16:13:53.546Z,73.00
2022-09-13T16:16:21.539Z,73.30
2022-09-13T16:18:49.653Z,73.50
2022-09-13T16:21:17.701Z,74.00
2022-09-13T16:23:45.623Z,74.40
2022-09-13T16:26:15.151Z,74.30
2022-09-13T16:28:43.539Z,74.60
2022-09-13T16:31:11.654Z,74.70
2022-09-13T16:33:39.609Z,75.00
2022-09-13T16:36:08.117Z,75.00
2022-09-13T16:38:36.136Z,75.10
2022-09-13T16:41:05.759Z,74.90
2022-09-13T16:43:35.413Z,75.00
2022-09-13T16:46:08.002Z,75.10
2022-09-13T16:48:36.715Z,75.90
2022-09-13T16:51:05.067Z,76.10
2022-09-13T16:53:33.911Z,76.30
2022-09-13T16:56:08.450Z,76.30
2022-09-13T16:58:39.200Z,76.60
2022-09-13T17:01:07.874Z,76.60
2022-09-13T17:03:36.260Z,76.60
2022-09-13T17:06:05.871Z,77.40
2022-09-13T17:08:35.658Z,77.00
2022-09-13T17:11:06.526Z,77.00
2022-09-13T17:13:34.562Z,77.20
2022-09-13T17:16:04.268Z,77.40
2022-09-13T17:18:32.272Z,78.00
2022-09-13T17:21:01.034Z,78.40
2022-09-13T17:23:29.400Z,78.40
2022-09-13T17:25:57.284Z,78.70
2022-09-13T17:28:25.164Z,78.70
2022-09-13T17:30:53.714Z,78.70
2022-09-13T17:33:22.930Z,79.10
2022-09-13T17:35:59.733Z,79.40
2022-09-13T17:38:27.660Z,79.50
2022-09-13T17:41:03.282Z,79.40
2022-09-13T17:43:31.349Z,79.70
2022-09-13T17:46:05.090Z,79.80
2022-09-13T17:48:34.674Z,80.10
2022-09-13T17:51:03.977Z,80.10
2022-09-13T17:53:32.413Z,80.50
2022-09-13T17:56:00.321Z,80.90
2022-09-13T17:58:28.246Z,80.90
2022-09-13T18:01:02.531Z,81.40
2022-09-13T18:03:30.843Z,82.10
2022-09-13T18:06:01.655Z,81.80
2022-09-13T18:08:31.759Z,82.50
2022-09-13T18:11:13.293Z,82.90
2022-09-13T18:13:43.720Z,83.10
2022-09-13T18:16:20.766Z,83.20
2022-09-13T18:18:49.951Z,84.00
2022-09-13T18:21:20.622Z,84.00
2022-09-13T18:23:49.825Z,84.40
2022-09-13T18:26:19.708Z,84.40
2022-09-13T18:28:48.536Z,84.80
2022-09-13T18:31:17.790Z,85.10
2022-09-13T18:33:47.821Z,85.40
2022-09-13T18:36:17.614Z,85.40
2022-09-13T18:38:48.276Z,85.80
2022-09-13T18:41:18.959Z,86.00
2022-09-13T18:43:52.916Z,86.10
2022-09-13T18:46:24.872Z,86.20
2022-09-13T18:48:54.829Z,86.30
2022-09-13T18:51:25.193Z,86.50
2022-09-13T18:53:55.568Z,86.50
2022-09-13T18:56:24.378Z,86.80
2022-09-13T18:58:53.423Z,86.70
2022-09-13T19:01:23.140Z,87.10
2022-09-13T19:03:53.066Z,87.40
2022-09-13T19:06:26.147Z,87.30
2022-09-13T19:08:56.680Z,87.50
2022-09-13T19:11:45.852Z,87.60
2022-09-13T19:14:18.102Z,88.00
2022-09-13T19:16:46.064Z,89.40
2022-09-13T19:19:14.082Z,88.90
2022-09-13T19:21:42.192Z,89.10
2022-09-13T19:24:17.768Z,89.90
2022-09-13T19:26:47.876Z,89.80
2022-09-13T19:29:17.343Z,90.00
2022-09-13T19:31:47.581Z,90.00
2022-09-13T19:34:17.337Z,90.20
2022-09-13T19:36:45.853Z,90.70
2022-09-13T19:39:15.198Z,90.80
2022-09-13T19:41:43.284Z,91.00
2022-09-13T19:44:13.705Z,90.90
2022-09-13T19:46:42.358Z,91.00
2022-09-13T19:49:14.429Z,91.20
2022-09-13T19:51:47.565Z,91.10
2022-09-13T19:54:20.912Z,91.20
2022-09-13T19:56:49.974Z,91.70
2022-09-13T19:59:20.330Z,91.70
2022-09-13T20:01:49.125Z,92.10
2022-09-13T20:04:19.716Z,92.00
2022-09-13T20:06:50.456Z,92.40
2022-09-13T20:09:21.328Z,92.30
2022-09-13T20:11:49.382Z,92.10
2022-09-13T20:14:19.149Z,92.10
2022-09-13T20:16:47.608Z,92.20
2022-09-13T20:19:39.354Z,92.40
2022-09-13T20:22:07.216Z,92.60
2022-09-13T20:24:36.737Z,92.50
2022-09-13T20:27:04.773Z,92.50
2022-09-13T20:29:32.710Z,92.70
2022-09-13T20:32:02.144Z,92.70
2022-09-13T20:34:30.086Z,92.90
2022-09-13T20:36:58.072Z,93.00
2022-09-13T20:39:25.925Z,92.90
2022-09-13T20:41:55.441Z,93.00
2022-09-13T20:44:23.688Z,93.10
2022-09-13T20:46:51.719Z,93.20
2022-09-13T20:49:19.619Z,93.20
2022-09-13T20:51:49.267Z,93.20
2022-09-13T20:54:17.346Z,93.40
2022-09-13T20:56:46.222Z,94.00
2022-09-13T20:59:15.879Z,93.60
2022-09-13T21:01:44.213Z,93.80
2022-09-13T21:04:12.178Z,93.70
2022-09-13T21:07:02.476Z,94.40
2022-09-13T21:09:29.840Z,94.00
2022-09-13T21:11:57.744Z,94.10
2022-09-13T21:14:27.066Z,94.10
2022-09-13T21:16:56.770Z,94.40
2022-09-13T21:19:24.787Z,94.40
2022-09-13T21:21:52.790Z,94.80
2022-09-13T21:24:20.713Z,94.70
2022-09-13T21:26:49.619Z,94.70
2022-09-13T21:29:17.537Z,94.60
2022-09-13T21:31:46.810Z,94.70
2022-09-13T21:34:16.798Z,95.10
2022-09-13T21:36:46.344Z,95.00
2022-09-13T21:39:15.091Z,95.20
2022-09-13T21:41:43.593Z,95.20
2022-09-13T21:44:11.766Z,95.20
2022-09-13T21:46:40.899Z,95.10
2022-09-13T21:49:12.650Z,95.10
2022-09-13T21:51:42.437Z,95.10
2022-09-13T21:54:14.073Z,95.10
2022-09-13T21:56:43.927Z,95.00
2022-09-13T21:59:14.447Z,95.20
2022-09-13T22:01:44.195Z,95.30
2022-09-13T22:04:18.304Z,95.50
2022-09-13T22:06:47.540Z,95.20
2022-09-13T22:09:16.331Z,95.20
2022-09-13T22:11:46.337Z,95.20
2022-09-13T22:14:16.936Z,95.30
2022-09-13T22:16:46.762Z,95.30
2022-09-13T22:19:17.792Z,95.30
2022-09-13T22:21:48.278Z,95.30
2022-09-13T22:24:18.645Z,95.20
2022-09-13T22:26:47.935Z,95.40
2022-09-13T22:29:16.923Z,95.20
2022-09-13T22:31:47.312Z,95.20
2022-09-13T22:34:19.193Z,95.20
2022-09-13T22:36:47.642Z,95.30
2022-09-13T22:39:17.332Z,95.30
2022-09-13T22:41:45.843Z,95.30
2022-09-13T22:44:13.954Z,95.30
2022-09-13T22:46:43.900Z,95.40
2022-09-13T22:49:14.211Z,95.30
2022-09-13T22:51:44.947Z,95.30
2022-09-13T22:54:13.108Z,95.30
2022-09-13T22:56:41.305Z,95.40
2022-09-13T22:59:12.339Z,95.40
2022-09-13T23:01:40.451Z,95.50
2022-09-13T23:04:08.774Z,95.40
2022-09-13T23:06:37.188Z,95.40
2022-09-13T23:09:08.654Z,95.40
2022-09-13T23:11:38.309Z,95.50
2022-09-13T23:14:08.386Z,95.40
2022-09-13T23:16:38.697Z,95.50
2022-09-13T23:19:07.121Z,95.50
2022-09-13T23:21:36.951Z,95.50
2022-09-13T23:24:07.986Z,95.50
2022-09-13T23:26:35.994Z,95.50
2022-09-13T23:29:05.252Z,95.50
2022-09-13T23:31:34.835Z,95.60
2022-09-13T23:34:04.840Z,95.70
2022-09-13T23:36:38.833Z,95.90
2022-09-13T23:39:11.242Z,95.90
2022-09-13T23:41:39.265Z,96.00
2022-09-13T23:44:07.423Z,95.90
2022-09-13T23:46:35.387Z,95.90
2022-09-13T23:49:03.489Z,95.90
2022-09-13T23:51:31.532Z,95.90
2022-09-13T23:54:01.132Z,95.90
2022-09-13T23:56:32.265Z,96.20
2022-09-13T23:59:01.825Z,96.10
